createdAt,value
2023-11-20T00:02:17.366Z,99646.91
2023-11-20T00:04:44.988Z,99652.16
2023-11-20T00:07:12.290Z,99644.28
2023-11-20T00:09:39.924Z,99639.62
2023-11-20T00:12:07.763Z,99658.16
2023-11-20T00:14:34.941Z,99659.47
2023-11-20T00:17:02.314Z,99662.84
2023-11-20T00:19:29.764Z,99675.00
2023-11-20T00:21:56.946Z,99670.72
2023-11-20T00:24:24.115Z,99669.88
2023-11-20T00:26:51.565Z,99671.72
2023-11-20T00:29:18.756Z,99675.72
2023-11-20T00:31:45.920Z,99669.44
2023-11-20T00:34:13.381Z,99657.50
2023-11-20T00:36:44.416Z,99649.97
2023-11-20T00:39:13.372Z,99660.00
2023-11-20T00:41:42.011Z,99667.00
2023-11-20T00:44:09.186Z,99673.56
2023-11-20T00:46:36.750Z,99692.59
2023-11-20T00:49:06.666Z,99708.81
2023-11-20T00:51:34.037Z,99725.81
2023-11-20T00:54:01.329Z,99748.94
2023-11-20T00:56:29.881Z,99745.22
2023-11-20T00:58:57.108Z,99723.84
2023-11-20T01:01:24.384Z,99677.19
2023-11-20T01:03:51.939Z,99657.69
2023-11-20T01:06:20.201Z,99656.88
2023-11-20T01:08:47.399Z,99646.16
2023-11-20T01:11:14.869Z,99643.97
2023-11-20T01:13:42.060Z,99646.22
2023-11-20T01:16:09.720Z,99647.84
2023-11-20T01:18:37.452Z,99651.06
2023-11-20T01:21:05.048Z,99657.03
2023-11-20T01:23:32.254Z,99674.13
2023-11-20T01:25:59.751Z,99672.34
2023-11-20T01:28:26.973Z,99669.09
2023-11-20T01:30:54.199Z,99671.13
2023-11-20T01:33:21.660Z,99665.41
2023-11-20T01:35:49.095Z,99667.81
2023-11-20T01:38:17.498Z,99651.41
2023-11-20T01:40:45.339Z,99635.91
2023-11-20T01:43:13.227Z,99639.62
2023-11-20T01:45:41.299Z,99637.78
2023-11-20T01:48:08.998Z,99636.56
2023-11-20T01:50:36.328Z,99641.72
2023-11-20T01:53:03.921Z,99635.59
2023-11-20T01:55:32.937Z,99632.69
2023-11-20T01:58:00.479Z,99628.72
2023-11-20T02:00:27.838Z,99625.56
2023-11-20T02:02:55.549Z,99631.66
2023-11-20T02:05:22.740Z,99639.62
2023-11-20T02:07:50.460Z,99642.13
2023-11-20T02:10:18.602Z,99636.44
2023-11-20T02:12:45.852Z,99645.72
2023-11-20T02:15:13.074Z,99652.81
2023-11-20T02:17:41.082Z,99645.09
2023-11-20T02:20:08.712Z,99642.34
2023-11-20T02:22:35.993Z,99652.88
2023-11-20T02:25:04.278Z,99652.72
2023-11-20T02:27:35.658Z,99655.03
2023-11-20T02:30:04.865Z,99659.97
2023-11-20T02:32:33.561Z,99654.09
2023-11-20T02:35:02.658Z,99649.66
2023-11-20T02:37:31.930Z,99643.97
2023-11-20T02:39:59.524Z,99646.22
2023-11-20T02:42:26.785Z,99655.44
2023-11-20T02:44:54.055Z,99649.13
2023-11-20T02:47:23.673Z,99645.72
2023-11-20T02:49:51.226Z,99650.41
2023-11-20T02:52:18.430Z,99646.53
2023-11-20T02:54:46.042Z,99640.06
2023-11-20T02:57:13.574Z,99650.91
2023-11-20T02:59:40.825Z,99652.09
2023-11-20T03:02:08.318Z,99655.50
2023-11-20T03:04:35.519Z,99654.75
2023-11-20T03:07:02.799Z,99647.12
2023-11-20T03:09:30.390Z,99654.06
2023-11-20T03:11:57.590Z,99655.31
2023-11-20T03:14:24.758Z,99641.94
2023-11-20T03:16:52.454Z,99643.59
2023-11-20T03:19:19.773Z,99656.91
2023-11-20T03:21:47.015Z,99656.22
2023-11-20T03:24:14.549Z,99653.34
2023-11-20T03:26:42.837Z,99653.91
2023-11-20T03:29:10.022Z,99647.44
2023-11-20T03:31:38.083Z,99644.22
2023-11-20T03:34:06.204Z,99631.88
2023-11-20T03:36:35.571Z,99621.22
2023-11-20T03:39:03.900Z,99619.25
2023-11-20T03:41:31.198Z,99606.06
2023-11-20T03:43:58.391Z,99590.91
2023-11-20T03:46:26.013Z,99598.56
2023-11-20T03:48:53.439Z,99583.44
2023-11-20T03:51:21.224Z,99582.13
2023-11-20T03:53:48.755Z,99570.19
2023-11-20T03:56:16.576Z,99578.22
2023-11-20T03:58:44.799Z,99563.66
2023-11-20T04:01:13.195Z,99567.56
2023-11-20T04:03:40.965Z,99574.06
2023-11-20T04:06:08.365Z,99565.97
2023-11-20T04:08:35.554Z,99554.00
2023-11-20T04:11:03.621Z,99570.22
2023-11-20T04:13:31.627Z,99568.63
2023-11-20T04:15:59.090Z,99563.59
2023-11-20T04:18:27.019Z,99554.25
2023-11-20T04:20:55.035Z,99558.66
2023-11-20T04:23:22.593Z,99565.00
2023-11-20T04:25:50.396Z,99566.53
2023-11-20T04:28:17.768Z,99579.75
2023-11-20T04:30:45.093Z,99589.84
2023-11-20T04:33:12.874Z,99596.84
2023-11-20T04:35:40.059Z,99604.87
2023-11-20T04:38:07.213Z,99614.94
2023-11-20T04:40:35.355Z,99620.13
2023-11-20T04:43:02.726Z,99613.22
2023-11-20T04:45:29.990Z,99605.59
2023-11-20T04:47:58.958Z,99614.88
2023-11-20T04:50:27.401Z,99607.13
2023-11-20T04:52:54.576Z,99608.28
2023-11-20T04:55:22.173Z,99597.47
2023-11-20T04:57:49.632Z,99592.09
2023-11-20T05:00:17.011Z,99587.69
2023-11-20T05:02:44.891Z,99587.81
2023-11-20T05:05:12.110Z,99588.13
2023-11-20T05:07:40.141Z,99588.06
2023-11-20T05:10:07.855Z,99590.25
2023-11-20T05:12:35.251Z,99593.12
2023-11-20T05:15:02.441Z,99597.69
2023-11-20T05:17:30.351Z,99591.22
2023-11-20T05:19:57.620Z,99586.34
2023-11-20T05:22:24.769Z,99594.03
2023-11-20T05:24:52.260Z,99594.59
2023-11-20T05:27:19.990Z,99609.44
2023-11-20T05:29:49.861Z,99603.25
2023-11-20T05:32:17.324Z,99605.19
2023-11-20T05:34:44.509Z,99609.50
2023-11-20T05:37:13.103Z,99609.34
2023-11-20T05:39:40.804Z,99600.28
2023-11-20T05:42:08.726Z,99607.41
2023-11-20T05:44:35.908Z,99598.50
2023-11-20T05:47:03.568Z,99615.38
2023-11-20T05:49:30.726Z,99615.72
2023-11-20T05:51:57.890Z,99612.87
2023-11-20T05:54:25.331Z,99610.22
2023-11-20T05:56:52.488Z,99614.81
2023-11-20T05:59:19.668Z,99607.88
2023-11-20T06:01:47.159Z,99601.94
2023-11-20T06:04:16.035Z,99602.38
2023-11-20T06:06:43.440Z,99594.56
2023-11-20T06:09:11.972Z,99601.84
2023-11-20T06:11:40.312Z,99600.69
2023-11-20T06:14:07.549Z,99608.47
2023-11-20T06:16:34.795Z,99616.91
2023-11-20T06:19:02.362Z,99611.16
2023-11-20T06:21:29.610Z,99609.34
2023-11-20T06:23:56.798Z,99623.34
2023-11-20T06:26:24.318Z,99622.91
2023-11-20T06:28:51.569Z,99630.44
2023-11-20T06:31:18.785Z,99643.41
2023-11-20T06:33:46.376Z,99644.66
2023-11-20T06:36:13.596Z,99640.44
2023-11-20T06:38:40.812Z,99656.47
2023-11-20T06:41:09.187Z,99661.81
2023-11-20T06:43:36.951Z,99655.69
2023-11-20T06:46:04.291Z,99661.38
2023-11-20T06:48:33.005Z,99660.53
2023-11-20T06:51:00.206Z,99653.88
2023-11-20T06:53:27.798Z,99654.56
2023-11-20T06:55:55.261Z,99655.28
2023-11-20T06:58:22.443Z,99651.47
2023-11-20T07:00:49.881Z,99650.03
2023-11-20T07:03:21.148Z,99637.19
2023-11-20T07:05:48.518Z,99654.59
2023-11-20T07:08:17.809Z,99646.50
2023-11-20T07:10:45.446Z,99644.38
2023-11-20T07:13:12.788Z,99648.09
2023-11-20T07:15:40.052Z,99642.94
2023-11-20T07:18:10.320Z,99651.31
2023-11-20T07:20:38.125Z,99636.69
2023-11-20T07:23:06.705Z,99639.12
2023-11-20T07:25:37.125Z,99637.34
2023-11-20T07:28:04.508Z,99647.38
2023-11-20T07:30:32.517Z,99648.81
2023-11-20T07:33:00.197Z,99653.41
2023-11-20T07:35:27.680Z,99654.44
2023-11-20T07:37:55.019Z,99643.22
2023-11-20T07:40:22.511Z,99641.38
2023-11-20T07:42:49.761Z,99631.56
2023-11-20T07:45:17.314Z,99624.94
2023-11-20T07:47:44.829Z,99628.94
2023-11-20T07:50:12.265Z,99632.47
2023-11-20T07:52:39.503Z,99637.91
2023-11-20T07:55:08.715Z,99642.44
2023-11-20T07:57:35.952Z,99637.16
2023-11-20T08:00:05.775Z,99635.25
2023-11-20T08:02:40.868Z,99629.16
2023-11-20T08:05:10.287Z,99625.84
2023-11-20T08:07:37.810Z,99624.94
2023-11-20T08:10:06.693Z,99621.56
2023-11-20T08:12:35.038Z,99631.34
2023-11-20T08:15:04.269Z,99630.78
2023-11-20T08:17:32.073Z,99627.47
2023-11-20T08:19:59.546Z,99627.59
2023-11-20T08:22:26.982Z,99635.87
2023-11-20T08:24:54.213Z,99633.78
2023-11-20T08:27:21.875Z,99641.72
2023-11-20T08:29:49.022Z,99634.00
2023-11-20T08:32:16.293Z,99633.22
2023-11-20T08:34:43.838Z,99634.06
2023-11-20T08:37:11.080Z,99630.59
2023-11-20T08:39:43.077Z,99631.06
2023-11-20T08:42:10.598Z,99620.03
2023-11-20T08:44:37.782Z,99615.78
2023-11-20T08:47:06.575Z,99622.28
2023-11-20T08:49:34.165Z,99622.22
2023-11-20T08:52:04.888Z,99622.28
2023-11-20T08:54:33.459Z,99628.00
2023-11-20T08:57:01.146Z,99623.94
2023-11-20T08:59:30.890Z,99625.81
2023-11-20T09:02:18.716Z,99619.19
2023-11-20T09:04:46.192Z,99627.16
2023-11-20T09:07:13.838Z,99614.88
2023-11-20T09:09:41.172Z,99619.81
2023-11-20T09:12:08.824Z,99617.69
2023-11-20T09:14:35.989Z,99620.13
2023-11-20T09:17:03.314Z,99611.06
2023-11-20T09:19:30.840Z,99617.75
2023-11-20T09:21:58.495Z,99611.28
2023-11-20T09:24:26.528Z,99606.91
2023-11-20T09:26:54.030Z,99603.03
2023-11-20T09:29:21.237Z,99607.25
2023-11-20T09:31:49.078Z,99607.00
2023-11-20T09:34:19.854Z,99603.66
2023-11-20T09:36:47.188Z,99604.41
2023-11-20T09:39:14.500Z,99605.84
2023-11-20T09:41:43.401Z,99608.31
2023-11-20T09:44:13.775Z,99604.06
2023-11-20T09:46:47.121Z,99596.13
2023-11-20T09:49:18.976Z,99604.44
2023-11-20T09:51:47.325Z,99599.47
2023-11-20T09:54:14.860Z,99590.50
2023-11-20T09:56:42.068Z,99592.81
2023-11-20T09:59:09.821Z,99592.59
2023-11-20T10:01:37.387Z,99589.47
2023-11-20T10:04:05.049Z,99578.34
2023-11-20T10:06:32.353Z,99574.47
2023-11-20T10:08:59.526Z,99578.03
2023-11-20T10:11:27.267Z,99571.56
2023-11-20T10:13:54.449Z,99574.53
2023-11-20T10:16:24.109Z,99572.34
2023-11-20T10:18:53.505Z,99571.78
2023-11-20T10:21:21.124Z,99559.72
2023-11-20T10:23:51.921Z,99568.84
2023-11-20T10:26:19.359Z,99559.72
2023-11-20T10:28:46.551Z,99564.94
2023-11-20T10:31:13.833Z,99556.31
2023-11-20T10:33:41.480Z,99553.66
2023-11-20T10:36:12.804Z,99559.94
2023-11-20T10:38:39.964Z,99549.94
2023-11-20T10:41:10.196Z,99547.50
2023-11-20T10:43:41.822Z,99543.63
2023-11-20T10:46:09.993Z,99542.28
2023-11-20T10:48:41.311Z,99533.16
2023-11-20T10:51:09.492Z,99541.78
2023-11-20T10:53:40.618Z,99541.03
2023-11-20T10:58:53.534Z,99536.94
2023-11-20T11:01:20.750Z,99528.34
2023-11-20T11:03:48.057Z,99534.34
2023-11-20T11:06:16.876Z,99531.78
2023-11-20T11:08:46.996Z,99535.31
2023-11-20T11:11:15.862Z,99533.47
2023-11-20T11:13:44.549Z,99535.25
2023-11-20T11:16:14.619Z,99534.34
2023-11-20T11:18:41.934Z,99538.00
2023-11-20T11:21:11.566Z,99529.37
2023-11-20T11:23:41.263Z,99525.38
2023-11-20T11:26:27.148Z,99522.06
2023-11-20T11:28:59.444Z,99513.28
2023-11-20T11:31:42.978Z,99510.78
2023-11-20T11:34:24.256Z,99505.75
2023-11-20T11:36:57.987Z,99508.03
2023-11-20T11:39:32.952Z,99505.66
2023-11-20T11:42:18.752Z,99507.38
2023-11-20T11:45:05.799Z,99498.84
2023-11-20T11:47:35.363Z,99500.44
2023-11-20T11:50:03.634Z,99486.56
2023-11-20T11:52:35.405Z,99480.72
2023-11-20T11:55:22.117Z,99479.94
2023-11-20T11:57:53.397Z,99479.25
2023-11-20T12:00:23.621Z,99481.28
2023-11-20T12:02:51.178Z,99474.50
2023-11-20T12:05:18.864Z,99483.41
2023-11-20T12:07:51.064Z,99483.22
2023-11-20T12:10:19.613Z,99479.84
2023-11-20T12:12:55.390Z,99485.94
2023-11-20T12:15:32.409Z,99468.94
2023-11-20T12:18:00.014Z,99462.13
2023-11-20T12:20:27.574Z,99463.03
2023-11-20T12:22:54.997Z,99463.22
2023-11-20T12:25:22.234Z,99462.41
2023-11-20T12:27:50.804Z,99460.41
2023-11-20T12:30:18.085Z,99459.53
2023-11-20T12:32:45.590Z,99459.63
2023-11-20T12:35:13.030Z,99459.94
2023-11-20T12:37:40.229Z,99455.03
2023-11-20T12:40:12.612Z,99454.81
2023-11-20T12:42:40.690Z,99450.66
2023-11-20T12:45:11.390Z,99445.41
2023-11-20T12:47:38.718Z,99449.50
2023-11-20T12:50:06.660Z,99459.75
2023-11-20T12:52:34.301Z,99460.56
2023-11-20T12:55:01.483Z,99453.78
2023-11-20T12:57:29.996Z,99454.97
2023-11-20T12:59:57.157Z,99450.38
2023-11-20T13:02:26.916Z,99445.44
2023-11-20T13:04:54.605Z,99449.81
2023-11-20T13:07:22.557Z,99453.22
2023-11-20T13:09:50.591Z,99454.47
2023-11-20T13:12:18.188Z,99450.13
2023-11-20T13:14:59.113Z,99450.97
2023-11-20T13:17:28.500Z,99451.38
2023-11-20T13:19:55.808Z,99449.59
2023-11-20T13:22:23.262Z,99448.78
2023-11-20T13:24:57.102Z,99447.78
2023-11-20T13:27:24.837Z,99446.47
2023-11-20T13:30:11.514Z,99441.22
2023-11-20T13:32:38.760Z,99446.19
2023-11-20T13:35:08.151Z,99441.94
2023-11-20T13:37:35.843Z,99432.59
2023-11-20T13:40:07.674Z,99435.94
2023-11-20T13:42:36.410Z,99436.16
2023-11-20T13:45:06.471Z,99446.25
2023-11-20T13:47:34.702Z,99437.16
2023-11-20T13:50:02.285Z,99443.69
2023-11-20T13:52:29.538Z,99433.66
2023-11-20T13:54:59.455Z,99428.69
2023-11-20T13:57:26.949Z,99439.09
2023-11-20T13:59:54.993Z,99431.31
2023-11-20T14:02:23.108Z,99431.72
2023-11-20T14:04:51.619Z,99424.00
2023-11-20T14:07:18.904Z,99429.50
2023-11-20T14:09:46.427Z,99431.13
2023-11-20T14:12:13.911Z,99430.00
2023-11-20T14:14:41.116Z,99434.16
2023-11-20T14:17:09.307Z,99433.00
2023-11-20T14:19:36.846Z,99431.22
2023-11-20T14:22:04.137Z,99428.56
2023-11-20T14:24:31.340Z,99431.19
2023-11-20T14:26:58.753Z,99434.91
2023-11-20T14:29:25.973Z,99430.25
2023-11-20T14:31:53.995Z,99430.31
2023-11-20T14:34:21.504Z,99427.81
2023-11-20T14:36:48.677Z,99439.25
2023-11-20T14:39:17.456Z,99436.44
2023-11-20T14:41:47.533Z,99438.22
2023-11-20T14:44:14.803Z,99440.28
2023-11-20T14:46:42.327Z,99440.94
2023-11-20T14:49:10.017Z,99446.38
2023-11-20T14:51:37.189Z,99441.81
2023-11-20T14:54:05.645Z,99436.59
2023-11-20T14:56:35.355Z,99432.88
2023-11-20T14:59:02.664Z,99434.41
2023-11-20T15:01:29.960Z,99439.66
2023-11-20T15:03:57.697Z,99443.16
2023-11-20T15:06:24.976Z,99441.38
2023-11-20T15:08:52.196Z,99434.31
2023-11-20T15:11:19.628Z,99435.75
2023-11-20T15:13:46.851Z,99439.06
2023-11-20T15:16:14.203Z,99443.47
2023-11-20T15:18:42.116Z,99435.63
2023-11-20T15:21:09.389Z,99425.72
2023-11-20T15:23:37.244Z,99430.88
2023-11-20T15:26:05.097Z,99426.38
2023-11-20T15:28:32.343Z,99417.66
2023-11-20T15:31:01.962Z,99416.06
2023-11-20T15:33:29.476Z,99421.28
2023-11-20T15:35:56.774Z,99425.12
2023-11-20T15:38:23.937Z,99423.31
2023-11-20T15:40:51.471Z,99427.13
2023-11-20T15:43:18.686Z,99436.44
2023-11-20T15:45:46.034Z,99429.31
2023-11-20T15:48:13.527Z,99433.06
2023-11-20T15:50:40.927Z,99436.31
2023-11-20T15:53:08.092Z,99433.31
2023-11-20T15:55:35.597Z,99442.81
2023-11-20T15:58:02.838Z,99437.47
2023-11-20T16:00:33.802Z,99438.25
2023-11-20T16:03:01.547Z,99434.94
2023-11-20T16:05:28.805Z,99427.72
2023-11-20T16:07:55.964Z,99434.72
2023-11-20T16:10:23.447Z,99437.13
2023-11-20T16:12:50.694Z,99433.66
2023-11-20T16:15:17.873Z,99433.53
2023-11-20T16:17:49.668Z,99430.78
2023-11-20T16:20:16.938Z,99433.06
2023-11-20T16:22:44.416Z,99430.16
2023-11-20T16:25:11.670Z,99430.56
2023-11-20T16:27:39.132Z,99438.38
2023-11-20T16:30:07.032Z,99436.72
2023-11-20T16:32:34.317Z,99434.84
2023-11-20T16:35:01.550Z,99444.78
2023-11-20T16:37:29.066Z,99444.69
2023-11-20T16:39:57.428Z,99445.41
2023-11-20T16:42:24.616Z,99441.62
2023-11-20T16:44:52.074Z,99439.19
2023-11-20T16:47:20.795Z,99438.94
2023-11-20T16:49:48.121Z,99436.94
2023-11-20T16:52:15.535Z,99430.59
2023-11-20T16:54:42.731Z,99440.00
2023-11-20T16:57:12.113Z,99433.41
2023-11-20T16:59:39.621Z,99438.91
2023-11-20T17:02:06.917Z,99429.22
2023-11-20T17:04:34.187Z,99432.00
2023-11-20T17:07:02.125Z,99430.09
2023-11-20T17:09:29.876Z,99438.00
2023-11-20T17:11:57.071Z,99441.78
2023-11-20T17:14:25.696Z,99433.16
2023-11-20T17:16:53.063Z,99427.72
2023-11-20T17:19:23.086Z,99430.94
2023-11-20T17:21:51.367Z,99440.25
2023-11-20T17:24:18.831Z,99435.47
2023-11-20T17:26:46.012Z,99439.19
2023-11-20T17:29:13.498Z,99440.16
2023-11-20T17:31:41.496Z,99435.66
2023-11-20T17:34:15.493Z,99437.28
2023-11-20T17:36:45.272Z,99437.03
2023-11-20T17:39:16.665Z,99432.62
2023-11-20T17:41:44.112Z,99440.91
2023-11-20T17:44:11.604Z,99436.03
2023-11-20T17:46:41.826Z,99432.81
2023-11-20T17:49:09.682Z,99432.00
2023-11-20T17:51:36.939Z,99433.78
2023-11-20T17:54:05.289Z,99437.63
2023-11-20T17:56:32.883Z,99441.97
2023-11-20T17:59:00.065Z,99430.06
2023-11-20T18:01:27.479Z,99432.84
2023-11-20T18:03:55.220Z,99434.06
2023-11-20T18:06:22.683Z,99435.31
2023-11-20T18:08:50.055Z,99430.09
2023-11-20T18:11:17.834Z,99424.59
2023-11-20T18:13:45.375Z,99437.56
2023-11-20T18:16:13.169Z,99440.16
2023-11-20T18:18:41.376Z,99437.16
2023-11-20T18:21:08.683Z,99446.72
2023-11-20T18:23:35.892Z,99442.03
2023-11-20T18:26:03.714Z,99441.47
2023-11-20T18:28:30.958Z,99433.69
2023-11-20T18:30:58.718Z,99434.25
2023-11-20T18:33:27.866Z,99438.91
2023-11-20T18:35:55.810Z,99435.00
2023-11-20T18:38:23.040Z,99431.59
2023-11-20T18:40:51.185Z,99432.62
2023-11-20T18:43:18.768Z,99437.59
2023-11-20T18:45:45.991Z,99433.44
2023-11-20T18:48:13.567Z,99434.41
2023-11-20T18:50:41.076Z,99442.28
2023-11-20T18:53:08.781Z,99434.91
2023-11-20T18:55:36.394Z,99445.47
2023-11-20T18:58:04.921Z,99443.69
2023-11-20T19:00:32.730Z,99441.12
2023-11-20T19:03:01.880Z,99443.38
2023-11-20T19:05:29.132Z,99440.47
2023-11-20T19:07:56.809Z,99450.50
2023-11-20T19:10:24.713Z,99449.38
2023-11-20T19:12:52.836Z,99443.94
2023-11-20T19:15:22.698Z,99436.56
2023-11-20T19:17:50.604Z,99439.09
2023-11-20T19:20:17.901Z,99434.50
2023-11-20T19:22:46.621Z,99447.91
2023-11-20T19:25:15.656Z,99450.53
2023-11-20T19:27:44.231Z,99450.53
2023-11-20T19:30:12.347Z,99451.78
2023-11-20T19:32:39.827Z,99455.22
2023-11-20T19:35:08.439Z,99448.91
2023-11-20T19:37:36.563Z,99444.72
2023-11-20T19:40:08.239Z,99449.41
2023-11-20T19:42:37.345Z,99441.72
2023-11-20T19:45:05.140Z,99437.56
2023-11-20T19:47:32.989Z,99441.16
2023-11-20T19:50:01.530Z,99446.25
2023-11-20T19:52:29.616Z,99433.44
2023-11-20T19:54:57.739Z,99440.06
2023-11-20T19:57:25.426Z,99432.50
2023-11-20T19:59:53.214Z,99433.56
2023-11-20T20:02:21.838Z,99437.09
2023-11-20T20:04:53.397Z,99435.38
2023-11-20T20:07:22.248Z,99440.66
2023-11-20T20:09:50.104Z,99441.75
2023-11-20T20:12:17.351Z,99437.28
2023-11-20T20:14:45.529Z,99439.72
2023-11-20T20:17:14.707Z,99443.84
2023-11-20T20:19:45.627Z,99451.41
2023-11-20T20:22:17.729Z,99452.87
2023-11-20T20:24:45.564Z,99448.91
2023-11-20T20:27:13.171Z,99449.28
2023-11-20T20:29:41.617Z,99444.81
2023-11-20T20:32:09.425Z,99448.22
2023-11-20T20:34:38.086Z,99444.53
2023-11-20T20:37:06.096Z,99449.97
2023-11-20T20:39:34.934Z,99443.88
2023-11-20T20:42:03.484Z,99452.03
2023-11-20T20:44:31.451Z,99455.53
2023-11-20T20:46:58.795Z,99449.69
2023-11-20T20:49:26.623Z,99462.97
2023-11-20T20:51:55.022Z,99454.28
2023-11-20T20:54:22.322Z,99454.78
2023-11-20T20:56:49.613Z,99449.56
2023-11-20T20:59:17.933Z,99458.81
2023-11-20T21:01:47.353Z,99460.66
2023-11-20T21:04:17.346Z,99447.53
2023-11-20T21:06:44.796Z,99448.50
2023-11-20T21:09:13.550Z,99453.97
2023-11-20T21:11:40.876Z,99456.56
2023-11-20T21:14:08.336Z,99447.81
2023-11-20T21:16:35.527Z,99458.66
2023-11-20T21:19:03.661Z,99447.81
2023-11-20T21:21:31.244Z,99453.00
2023-11-20T21:23:58.420Z,99451.41
2023-11-20T21:26:25.586Z,99456.97
2023-11-20T21:28:53.041Z,99456.88
2023-11-20T21:31:21.899Z,99456.78
2023-11-20T21:33:49.194Z,99457.75
2023-11-20T21:36:20.339Z,99451.31
2023-11-20T21:38:49.944Z,99445.78
2023-11-20T21:41:17.994Z,99447.63
2023-11-20T21:43:45.233Z,99441.75
2023-11-20T21:46:12.542Z,99445.28
2023-11-20T21:48:40.038Z,99447.16
2023-11-20T21:51:07.986Z,99446.22
2023-11-20T21:53:35.645Z,99450.78
2023-11-20T21:56:03.111Z,99450.97
2023-11-20T21:58:32.974Z,99448.16
2023-11-20T22:01:00.261Z,99446.53
2023-11-20T22:03:27.772Z,99446.25
2023-11-20T22:05:54.982Z,99441.19
2023-11-20T22:08:22.147Z,99447.88
2023-11-20T22:10:49.691Z,99452.59
2023-11-20T22:13:18.552Z,99456.41
2023-11-20T22:15:45.837Z,99458.69
2023-11-20T22:18:13.372Z,99461.97
2023-11-20T22:20:40.588Z,99456.31
2023-11-20T22:23:07.785Z,99461.38
2023-11-20T22:25:35.295Z,99456.78
2023-11-20T22:28:02.473Z,99450.97
2023-11-20T22:30:29.674Z,99448.81
2023-11-20T22:32:57.125Z,99446.53
2023-11-20T22:35:24.354Z,99439.59
2023-11-20T22:37:51.597Z,99448.00
2023-11-20T22:40:19.172Z,99453.03
2023-11-20T22:42:47.782Z,99452.53
2023-11-20T22:45:15.144Z,99453.44
2023-11-20T22:47:43.614Z,99460.66
2023-11-20T22:50:11.518Z,99469.06
2023-11-20T22:52:38.911Z,99460.31
2023-11-20T22:55:06.620Z,99454.03
2023-11-20T22:57:33.944Z,99460.63
2023-11-20T23:00:01.321Z,99455.88
2023-11-20T23:02:29.561Z,99453.44
2023-11-20T23:04:58.332Z,99448.00
2023-11-20T23:07:25.553Z,99448.59
2023-11-20T23:09:53.038Z,99437.69
2023-11-20T23:12:20.268Z,99446.50
2023-11-20T23:14:47.936Z,99446.66
2023-11-20T23:17:15.436Z,99445.94
2023-11-20T23:19:42.709Z,99441.22
2023-11-20T23:22:10.005Z,99446.47
2023-11-20T23:24:39.334Z,99450.28
2023-11-20T23:27:07.953Z,99451.63
2023-11-20T23:29:35.522Z,99450.03
2023-11-20T23:32:05.310Z,99453.09
2023-11-20T23:34:33.360Z,99451.66
2023-11-20T23:37:00.954Z,99454.91
2023-11-20T23:39:28.460Z,99457.28
2023-11-20T23:41:55.634Z,99459.94
2023-11-20T23:44:22.826Z,99469.16
2023-11-20T23:46:50.474Z,99464.19
2023-11-20T23:49:18.694Z,99468.03
2023-11-20T23:51:45.950Z,99460.75
2023-11-20T23:54:13.431Z,99459.03
2023-11-20T23:56:40.617Z,99461.38
2023-11-20T23:59:07.779Z,99454.44
